createdAt,value
2022-10-14T04:01:00.340Z,98.58
2022-10-14T04:02:00.851Z,98.58
2022-10-14T04:03:00.788Z,98.58
2022-10-14T04:04:00.257Z,98.48
2022-10-14T04:05:01.178Z,98.48
2022-10-14T04:06:00.254Z,98.52
2022-10-14T04:07:00.256Z,98.48
2022-10-14T04:08:00.377Z,98.52
2022-10-14T04:09:00.463Z,98.48
2022-10-14T04:10:00.310Z,98.52
2022-10-14T04:11:00.322Z,98.52
2022-10-14T04:12:00.173Z,98.52
2022-10-14T04:13:11.523Z,98.52
2022-10-14T04:14:00.142Z,98.52
2022-10-14T04:15:00.127Z,98.52
2022-10-14T04:16:00.104Z,98.52
2022-10-14T04:17:00.298Z,98.52
2022-10-14T04:18:00.086Z,98.43
2022-10-14T04:19:00.100Z,98.43
2022-10-14T04:20:00.020Z,98.43
2022-10-14T04:21:00.019Z,98.43
2022-10-14T04:22:00.002Z,98.43
2022-10-14T04:23:00.010Z,98.43
2022-10-14T04:24:02.669Z,98.43
2022-10-14T04:25:00.031Z,98.43
2022-10-14T04:25:59.947Z,98.43
2022-10-14T04:26:59.969Z,98.43
2022-10-14T04:27:59.929Z,98.43
2022-10-14T04:28:59.995Z,98.52
2022-10-14T04:29:59.908Z,98.52
2022-10-14T04:30:59.938Z,98.52
2022-10-14T04:31:59.887Z,98.52
2022-10-14T04:32:59.860Z,98.52
2022-10-14T04:33:59.851Z,98.52
2022-10-14T04:34:59.827Z,98.52
2022-10-14T04:35:59.825Z,98.52
2022-10-14T04:36:59.856Z,98.52
2022-10-14T04:37:59.818Z,98.52
2022-10-14T04:38:59.769Z,98.52
2022-10-14T04:39:59.797Z,98.52
2022-10-14T04:40:59.768Z,98.63
2022-10-14T04:41:59.785Z,98.63
2022-10-14T04:42:59.842Z,98.63
2022-10-14T04:43:59.720Z,98.63
2022-10-14T04:44:59.763Z,98.63
2022-10-14T04:45:59.697Z,98.63
2022-10-14T04:47:06.695Z,98.63
2022-10-14T04:47:59.658Z,98.63
2022-10-14T04:48:59.687Z,98.63
2022-10-14T04:49:59.627Z,98.63
2022-10-14T04:50:59.637Z,98.63
2022-10-14T04:51:59.596Z,98.63
2022-10-14T04:52:59.612Z,98.63
2022-10-14T04:53:59.622Z,98.63
2022-10-14T04:54:59.670Z,98.63
2022-10-14T04:55:59.546Z,98.63
2022-10-14T04:56:59.561Z,98.63
2022-10-14T04:57:59.517Z,98.63
2022-10-14T04:58:59.545Z,98.63
2022-10-14T04:59:59.485Z,98.63
2022-10-14T05:00:59.534Z,98.63
2022-10-14T05:01:59.515Z,98.52
2022-10-14T05:02:59.465Z,98.52
2022-10-14T05:03:59.445Z,98.52
2022-10-14T05:04:59.431Z,98.52
2022-10-14T05:05:59.414Z,98.52
2022-10-14T05:06:59.468Z,98.52
2022-10-14T05:07:59.383Z,98.52
2022-10-14T05:08:59.373Z,98.52
2022-10-14T05:09:59.368Z,98.52
2022-10-14T05:10:59.347Z,98.52
2022-10-14T05:11:59.375Z,98.52
2022-10-14T05:12:59.415Z,98.52
2022-10-14T05:13:59.319Z,98.52
2022-10-14T05:14:59.441Z,98.52
2022-10-14T05:15:59.303Z,98.52
2022-10-14T05:16:59.277Z,98.52
2022-10-14T05:17:59.256Z,98.52
2022-10-14T05:18:59.271Z,98.43
2022-10-14T05:19:59.301Z,98.52
2022-10-14T05:20:59.213Z,98.52
2022-10-14T05:21:59.212Z,98.43
2022-10-14T05:22:59.189Z,98.52
2022-10-14T05:23:59.232Z,98.43
2022-10-14T05:24:59.159Z,98.43
2022-10-14T05:25:59.160Z,98.52
2022-10-14T05:26:59.143Z,98.52
2022-10-14T05:27:59.120Z,98.52
2022-10-14T05:28:59.164Z,98.52
2022-10-14T05:29:59.161Z,98.52
2022-10-14T05:30:59.079Z,98.52
2022-10-14T05:31:59.069Z,98.52
2022-10-14T05:32:59.058Z,98.52
2022-10-14T05:33:59.047Z,98.52
2022-10-14T05:34:59.028Z,98.52
2022-10-14T05:35:59.742Z,98.52
2022-10-14T05:36:59.017Z,98.52
2022-10-14T05:38:03.933Z,98.57
2022-10-14T05:38:59.978Z,98.57
2022-10-14T05:39:58.960Z,98.57
2022-10-14T05:40:58.956Z,98.57
2022-10-14T05:41:58.977Z,98.57
2022-10-14T05:42:58.926Z,98.57
2022-10-14T05:43:58.910Z,98.57
2022-10-14T05:44:58.895Z,98.57
2022-10-14T05:45:58.878Z,98.57
2022-10-14T05:46:58.880Z,98.57
2022-10-14T05:47:58.914Z,98.57
2022-10-14T05:48:58.837Z,98.57
2022-10-14T05:49:58.826Z,98.57
2022-10-14T05:50:58.815Z,98.57
2022-10-14T05:51:58.942Z,98.57
2022-10-14T05:52:58.786Z,98.57
2022-10-14T05:53:58.826Z,98.57
2022-10-14T05:54:58.761Z,98.57
2022-10-14T05:55:58.744Z,98.57
2022-10-14T05:56:58.743Z,98.52
2022-10-14T05:57:58.722Z,98.52
2022-10-14T05:58:58.711Z,98.52
2022-10-14T05:59:59.847Z,98.52
2022-10-14T06:00:58.691Z,98.52
2022-10-14T06:01:58.669Z,98.52
2022-10-14T06:02:58.743Z,98.52
2022-10-14T06:03:58.641Z,98.52
2022-10-14T06:04:58.637Z,98.52
2022-10-14T06:05:58.659Z,98.52
2022-10-14T06:06:58.602Z,98.52
2022-10-14T06:07:58.603Z,98.52
2022-10-14T06:08:58.644Z,98.43
2022-10-14T06:09:58.674Z,98.43
2022-10-14T06:10:58.554Z,98.43
2022-10-14T06:11:58.612Z,98.43
2022-10-14T06:12:58.531Z,98.43
2022-10-14T06:13:58.560Z,98.38
2022-10-14T06:14:58.561Z,98.27
2022-10-14T06:15:58.579Z,98.27
2022-10-14T06:16:58.481Z,98.27
2022-10-14T06:17:58.462Z,98.27
2022-10-14T06:18:58.450Z,98.27
2022-10-14T06:19:58.430Z,98.18
2022-10-14T06:20:58.487Z,98.18
2022-10-14T06:21:58.410Z,98.18
2022-10-14T06:22:58.401Z,98.07
2022-10-14T06:23:58.379Z,98.07
2022-10-14T06:25:03.834Z,97.97
2022-10-14T06:25:59.397Z,97.92
2022-10-14T06:26:58.338Z,97.92
2022-10-14T06:27:58.347Z,97.82
2022-10-14T06:28:58.375Z,97.82
2022-10-14T06:29:58.299Z,97.82
2022-10-14T06:30:58.286Z,97.82
2022-10-14T06:31:58.299Z,97.82
2022-10-14T06:32:58.266Z,97.72
2022-10-14T06:33:58.244Z,97.67
2022-10-14T06:34:58.265Z,97.67
2022-10-14T06:35:58.216Z,97.57
2022-10-14T06:37:02.208Z,97.57
2022-10-14T06:37:58.185Z,97.57
2022-10-14T06:38:58.846Z,97.47
2022-10-14T06:39:58.255Z,97.47
2022-10-14T06:40:58.163Z,97.37
2022-10-14T06:41:58.134Z,97.37
2022-10-14T06:42:58.115Z,97.27
2022-10-14T06:43:58.103Z,97.37
2022-10-14T06:44:58.204Z,97.27
2022-10-14T06:45:58.440Z,97.16
2022-10-14T06:46:58.261Z,97.16
2022-10-14T06:47:58.144Z,97.12
2022-10-14T06:48:58.067Z,97.02
2022-10-14T06:49:58.326Z,97.02
2022-10-14T06:50:58.013Z,96.92
2022-10-14T06:51:57.997Z,96.92
2022-10-14T06:52:57.981Z,96.92
2022-10-14T06:53:57.966Z,96.92
2022-10-14T06:54:58.484Z,96.87
2022-10-14T06:55:57.945Z,96.87
2022-10-14T06:56:57.932Z,96.77
2022-10-14T06:57:57.911Z,96.77
2022-10-14T06:58:57.902Z,96.67
2022-10-14T06:59:57.889Z,96.67
2022-10-14T07:01:57.912Z,96.46
2022-10-14T07:02:57.850Z,96.46
2022-10-14T07:03:57.841Z,96.42
2022-10-14T07:04:57.831Z,96.31
2022-10-14T07:05:57.810Z,96.22
2022-10-14T07:06:57.834Z,96.11
2022-10-14T07:07:57.826Z,96.01
2022-10-14T07:08:57.777Z,95.91
2022-10-14T07:09:57.760Z,95.86
2022-10-14T07:10:57.748Z,95.86
2022-10-14T07:11:57.763Z,95.76
2022-10-14T07:12:57.917Z,95.62
2022-10-14T07:13:57.707Z,95.62
2022-10-14T07:14:57.698Z,95.51
2022-10-14T07:15:57.683Z,95.41
2022-10-14T07:16:57.812Z,95.37
2022-10-14T07:17:57.659Z,95.26
2022-10-14T07:18:57.646Z,95.17
2022-10-14T07:19:57.638Z,95.26
2022-10-14T07:20:57.610Z,95.17
2022-10-14T07:21:57.608Z,95.06
2022-10-14T07:22:57.965Z,94.92
2022-10-14T07:23:57.567Z,94.82
2022-10-14T07:24:57.571Z,94.82
2022-10-14T07:25:57.549Z,94.61
2022-10-14T07:26:57.618Z,94.51
2022-10-14T07:27:57.522Z,94.61
2022-10-14T07:28:57.726Z,94.51
2022-10-14T07:29:57.496Z,94.41
2022-10-14T07:30:57.506Z,94.41
2022-10-14T07:31:57.471Z,94.41
2022-10-14T07:32:57.475Z,94.51
2022-10-14T07:33:57.437Z,94.61
2022-10-14T07:34:57.465Z,94.61
2022-10-14T07:35:57.948Z,94.61
2022-10-14T07:36:57.407Z,94.61
2022-10-14T07:37:57.395Z,94.61
2022-10-14T07:38:57.376Z,94.71
2022-10-14T07:39:57.370Z,94.71
2022-10-14T07:40:57.353Z,94.61
2022-10-14T07:41:57.364Z,94.71
2022-10-14T07:42:57.323Z,94.71
2022-10-14T07:43:57.311Z,94.82
2022-10-14T07:44:57.304Z,94.82
2022-10-14T07:45:57.286Z,94.82
2022-10-14T07:46:57.343Z,94.82
2022-10-14T07:47:57.255Z,94.82
2022-10-14T07:48:57.911Z,94.82
2022-10-14T07:49:57.233Z,94.46
2022-10-14T07:50:57.273Z,94.46
2022-10-14T07:51:57.203Z,94.46
2022-10-14T07:53:00.991Z,94.42
2022-10-14T07:53:57.185Z,94.32
2022-10-14T07:54:57.171Z,94.27
2022-10-14T07:55:57.153Z,93.67
2022-10-14T07:56:57.193Z,93.71
2022-10-14T07:57:57.142Z,93.81
2022-10-14T07:58:57.116Z,93.61
2022-10-14T07:59:57.118Z,93.65
2022-10-14T08:00:57.107Z,93.76
2022-10-14T08:01:57.152Z,93.96
2022-10-14T08:02:57.263Z,93.96
2022-10-14T08:03:57.055Z,94.02
2022-10-14T08:05:13.201Z,94.02
2022-10-14T08:05:58.020Z,93.81
2022-10-14T08:06:57.015Z,93.67
2022-10-14T08:07:56.991Z,93.57
2022-10-14T08:08:57.141Z,93.67
2022-10-14T08:09:56.969Z,93.26
2022-10-14T08:10:56.971Z,93.37
2022-10-14T08:11:56.946Z,93.16
2022-10-14T08:12:56.940Z,93.37
2022-10-14T08:13:56.918Z,93.41
2022-10-14T08:14:56.969Z,93.41
2022-10-14T08:15:56.896Z,93.41
2022-10-14T08:16:56.909Z,93.46
2022-10-14T08:17:56.894Z,93.21
2022-10-14T08:18:56.860Z,93.46
2022-10-14T08:19:56.849Z,93.06
2022-10-14T08:20:56.860Z,92.86
2022-10-14T08:21:56.823Z,92.86
2022-10-14T08:22:56.799Z,92.76
2022-10-14T08:23:56.788Z,92.55
2022-10-14T08:24:56.769Z,92.55
2022-10-14T08:25:56.769Z,92.90
2022-10-14T08:26:56.907Z,93.16
2022-10-14T08:27:56.732Z,93.06
2022-10-14T08:28:56.762Z,93.06
2022-10-14T08:29:56.708Z,93.16
2022-10-14T08:30:56.718Z,93.12
2022-10-14T08:31:56.689Z,92.91
2022-10-14T08:32:56.820Z,92.91
2022-10-14T08:33:56.657Z,92.77
2022-10-14T08:34:56.635Z,92.57
2022-10-14T08:35:56.628Z,92.47
2022-10-14T08:36:56.645Z,92.57
2022-10-14T08:37:56.603Z,92.63
2022-10-14T08:38:56.633Z,92.02
2022-10-14T08:39:56.606Z,91.61
2022-10-14T08:40:56.557Z,91.11
2022-10-14T08:41:56.584Z,90.86
2022-10-14T08:42:56.537Z,90.96
2022-10-14T08:43:56.526Z,90.76
2022-10-14T08:44:56.509Z,90.86
2022-10-14T08:45:56.486Z,90.92
2022-10-14T08:46:56.589Z,91.02
2022-10-14T08:47:56.465Z,90.82
2022-10-14T08:48:56.455Z,91.02
2022-10-14T08:49:56.500Z,90.88
2022-10-14T08:50:56.425Z,90.88
2022-10-14T08:51:56.465Z,90.98
2022-10-14T08:52:56.610Z,90.88
2022-10-14T08:53:56.389Z,90.58
2022-10-14T08:54:56.375Z,90.12
2022-10-14T08:55:56.363Z,90.17
2022-10-14T08:56:56.412Z,89.97
2022-10-14T08:57:56.352Z,90.67
2022-10-14T08:58:56.374Z,90.53
2022-10-14T08:59:56.311Z,90.33
2022-10-14T09:00:56.295Z,90.33
2022-10-14T09:01:56.285Z,90.43
2022-10-14T09:02:56.307Z,90.23
2022-10-14T09:03:56.283Z,89.78
2022-10-14T09:04:56.404Z,89.68
2022-10-14T09:05:56.241Z,90.03
2022-10-14T09:06:56.214Z,89.92
2022-10-14T09:07:56.204Z,89.62
2022-10-14T09:08:56.187Z,89.42
2022-10-14T09:09:56.191Z,89.92
2022-10-14T09:10:56.223Z,89.92
2022-10-14T09:11:56.172Z,90.23
2022-10-14T09:12:56.133Z,89.83
2022-10-14T09:13:56.122Z,89.83
2022-10-14T09:14:56.133Z,89.83
2022-10-14T09:15:56.091Z,89.52
2022-10-14T09:16:56.192Z,89.52
2022-10-14T09:17:56.093Z,89.62
2022-10-14T09:18:56.092Z,90.12
2022-10-14T09:19:56.041Z,90.28
2022-10-14T09:20:56.032Z,90.08
2022-10-14T09:21:56.011Z,90.19
2022-10-14T09:22:56.035Z,89.37
2022-10-14T09:23:56.012Z,89.68
2022-10-14T09:24:55.984Z,90.24
2022-10-14T09:25:55.979Z,90.34
2022-10-14T09:27:55.942Z,89.23
2022-10-14T09:28:56.010Z,88.89
2022-10-14T09:29:55.934Z,88.79
2022-10-14T09:30:55.897Z,88.48
2022-10-14T09:31:55.890Z,88.04
2022-10-14T09:32:55.950Z,87.74
2022-10-14T09:33:55.869Z,87.84
2022-10-14T09:34:55.858Z,87.70
2022-10-14T09:35:55.890Z,86.99
2022-10-14T09:36:55.834Z,87.29
2022-10-14T09:37:55.811Z,87.85
2022-10-14T09:38:55.849Z,87.96
2022-10-14T09:39:55.790Z,87.05
2022-10-14T09:40:55.770Z,87.15
2022-10-14T09:41:55.769Z,87.05
2022-10-14T09:42:55.740Z,87.35
2022-10-14T09:43:55.733Z,87.45
2022-10-14T09:44:55.809Z,86.99
2022-10-14T09:45:55.699Z,87.55
2022-10-14T09:46:55.689Z,87.90
2022-10-14T09:47:55.873Z,88.10
2022-10-14T09:48:55.661Z,87.90
2022-10-14T09:49:55.658Z,87.80
2022-10-14T09:50:55.638Z,87.90
2022-10-14T09:51:55.622Z,87.70
2022-10-14T09:52:55.608Z,88.10
2022-10-14T09:53:55.662Z,87.80
2022-10-14T09:54:55.580Z,88.20
2022-10-14T09:55:55.569Z,88.10
2022-10-14T09:56:55.566Z,87.70
2022-10-14T09:57:55.580Z,87.85
2022-10-14T09:58:55.527Z,87.65
2022-10-14T09:59:55.519Z,87.76
2022-10-14T10:00:55.507Z,87.85
2022-10-14T10:01:55.500Z,87.45
2022-10-14T10:02:55.529Z,87.65
2022-10-14T10:03:55.546Z,87.21
2022-10-14T10:04:55.449Z,86.66
2022-10-14T10:05:55.440Z,86.57
2022-10-14T10:06:55.445Z,86.36
2022-10-14T10:07:55.439Z,86.26
2022-10-14T10:08:55.768Z,85.46
2022-10-14T10:09:55.384Z,86.06
2022-10-14T10:10:55.432Z,86.12
2022-10-14T10:11:55.370Z,85.92
2022-10-14T10:12:55.366Z,85.62
2022-10-14T10:14:02.422Z,85.82
2022-10-14T10:14:55.323Z,85.66
2022-10-14T10:15:55.311Z,84.95
2022-10-14T10:16:55.297Z,85.66
2022-10-14T10:17:55.282Z,85.96
2022-10-14T10:18:55.271Z,86.06
2022-10-14T10:19:55.677Z,85.62
2022-10-14T10:20:55.250Z,85.11
2022-10-14T10:21:55.230Z,84.61
2022-10-14T10:22:55.302Z,84.91
2022-10-14T10:23:55.209Z,83.40
2022-10-14T10:24:55.212Z,83.97
2022-10-14T10:25:55.241Z,84.17
2022-10-14T10:26:55.183Z,83.63
2022-10-14T10:27:55.141Z,81.92
2022-10-14T10:28:55.160Z,81.52
2022-10-14T10:29:55.123Z,81.01
2022-10-14T10:30:55.121Z,80.55
2022-10-14T10:31:55.132Z,81.21
2022-10-14T10:32:55.081Z,81.62
2022-10-14T10:33:55.070Z,81.32
2022-10-14T10:34:55.059Z,82.28
2022-10-14T10:35:55.218Z,81.07
2022-10-14T10:36:55.031Z,80.24
2022-10-14T10:37:55.061Z,80.54
2022-10-14T10:38:55.003Z,80.74
2022-10-14T10:39:54.996Z,78.73
2022-10-14T10:40:55.011Z,79.33
2022-10-14T10:41:54.970Z,78.49
2022-10-14T10:42:54.950Z,79.19
2022-10-14T10:43:54.979Z,78.69
2022-10-14T10:44:54.954Z,79.60
2022-10-14T10:45:55.228Z,78.89
2022-10-14T10:46:55.025Z,79.49
2022-10-14T10:47:54.935Z,77.59
2022-10-14T10:48:54.914Z,78.49
2022-10-14T10:50:54.875Z,79.09
2022-10-14T10:51:54.895Z,79.96
2022-10-14T10:52:54.847Z,78.35
2022-10-14T10:53:54.853Z,76.75
2022-10-14T10:54:54.822Z,77.41
2022-10-14T10:55:54.859Z,76.51
2022-10-14T10:56:54.850Z,75.64
2022-10-14T10:57:54.812Z,77.05
2022-10-14T10:58:54.774Z,79.25
2022-10-14T10:59:54.777Z,78.96
2022-10-14T11:00:54.745Z,77.85
2022-10-14T11:01:54.822Z,77.75
2022-10-14T11:02:55.356Z,77.65
2022-10-14T11:03:54.736Z,78.75
2022-10-14T11:04:54.685Z,77.35
2022-10-14T11:05:54.726Z,77.61
2022-10-14T11:06:54.676Z,76.85
2022-10-14T11:07:54.673Z,79.02
2022-10-14T11:08:55.057Z,80.12
2022-10-14T11:09:54.662Z,79.52
2022-10-14T11:10:54.615Z,78.88
2022-10-14T11:11:54.623Z,77.87
2022-10-14T11:12:54.603Z,77.11
2022-10-14T11:13:55.107Z,76.41
2022-10-14T11:14:54.755Z,76.41
2022-10-14T11:15:54.584Z,76.85
2022-10-14T11:16:54.541Z,77.55
2022-10-14T11:17:54.665Z,78.25
2022-10-14T11:18:54.513Z,77.89
2022-10-14T11:19:54.543Z,78.09
2022-10-14T11:20:54.664Z,79.13
2022-10-14T11:21:54.485Z,79.03
2022-10-14T11:22:54.459Z,78.19
2022-10-14T11:23:54.462Z,77.52
2022-10-14T11:24:54.438Z,77.96
2022-10-14T11:25:54.434Z,78.56
2022-10-14T11:26:54.746Z,78.97
2022-10-14T11:27:54.397Z,80.01
2022-10-14T11:28:54.435Z,80.41
2022-10-14T11:29:54.347Z,81.76
2022-10-14T11:30:54.326Z,81.96
2022-10-14T11:31:54.316Z,81.76
2022-10-14T11:32:56.562Z,82.16
2022-10-14T11:33:54.289Z,83.17
2022-10-14T11:34:54.276Z,83.17
2022-10-14T11:35:54.267Z,82.46
2022-10-14T11:36:54.245Z,81.49
2022-10-14T11:37:54.406Z,81.90
2022-10-14T11:38:54.255Z,82.50
2022-10-14T11:39:54.216Z,81.39
2022-10-14T11:40:54.194Z,82.14
2022-10-14T11:41:54.195Z,82.64
2022-10-14T11:42:54.185Z,82.44
2022-10-14T11:43:54.160Z,82.98
2022-10-14T11:44:54.226Z,83.39
2022-10-14T11:45:54.130Z,82.98
2022-10-14T11:46:54.116Z,83.62
2022-10-14T11:47:54.115Z,84.23
2022-10-14T11:48:54.090Z,84.13
2022-10-14T11:49:54.095Z,84.33
2022-10-14T11:50:54.255Z,85.24
2022-10-14T11:51:54.064Z,85.64
2022-10-14T11:52:54.033Z,84.83
2022-10-14T11:53:54.023Z,85.94
2022-10-14T11:54:54.025Z,85.94
2022-10-14T11:55:54.013Z,86.35
2022-10-14T11:56:54.023Z,86.65
2022-10-14T11:57:53.964Z,87.15
2022-10-14T11:58:53.969Z,86.55
2022-10-14T11:59:53.952Z,86.95
2022-10-14T12:00:53.954Z,86.75
2022-10-14T12:01:53.931Z,86.75
2022-10-14T12:02:54.023Z,86.41
2022-10-14T12:03:53.894Z,87.21
2022-10-14T12:04:53.924Z,85.76
2022-10-14T12:05:53.878Z,85.62
2022-10-14T12:06:53.863Z,85.28
2022-10-14T12:07:53.843Z,84.77
2022-10-14T12:08:53.904Z,85.17
2022-10-14T12:09:57.236Z,84.03
2022-10-14T12:10:54.823Z,84.83
2022-10-14T12:11:53.788Z,85.19
2022-10-14T12:12:53.774Z,84.15
2022-10-14T12:13:53.773Z,83.15
2022-10-14T12:14:53.962Z,81.84
2022-10-14T12:15:53.742Z,81.44
2022-10-14T12:16:53.727Z,80.83
2022-10-14T12:17:53.724Z,81.44
2022-10-14T12:18:53.701Z,81.84
2022-10-14T12:19:53.683Z,81.44
2022-10-14T12:20:53.733Z,80.90
2022-10-14T12:21:53.662Z,81.60
2022-10-14T12:22:53.643Z,82.51
2022-10-14T12:23:53.661Z,81.94
2022-10-14T12:24:53.616Z,81.94
2022-10-14T12:25:53.613Z,83.01
2022-10-14T12:26:53.633Z,81.10
2022-10-14T12:27:53.581Z,81.14
2022-10-14T12:28:54.197Z,79.73
2022-10-14T12:29:53.562Z,80.10
2022-10-14T12:30:53.553Z,79.19
2022-10-14T12:31:53.522Z,79.69
2022-10-14T12:32:53.549Z,78.79
2022-10-14T12:33:53.506Z,78.89
2022-10-14T12:34:53.591Z,78.66
2022-10-14T12:35:53.470Z,77.55
2022-10-14T12:36:53.508Z,78.29
2022-10-14T12:37:53.500Z,78.59
2022-10-14T12:38:53.546Z,79.69
2022-10-14T12:39:53.443Z,80.30
2022-10-14T12:40:53.412Z,80.19
2022-10-14T12:41:53.393Z,79.39
2022-10-14T12:42:53.723Z,79.99
2022-10-14T12:43:53.371Z,80.10
2022-10-14T12:44:53.359Z,78.89
2022-10-14T12:45:53.344Z,78.55
2022-10-14T12:46:53.340Z,78.66
2022-10-14T12:47:53.319Z,79.55
2022-10-14T12:48:53.350Z,78.35
2022-10-14T12:49:53.403Z,78.35
2022-10-14T12:50:53.288Z,79.25
2022-10-14T12:51:53.319Z,79.86
2022-10-14T12:52:53.260Z,76.78
2022-10-14T12:53:53.241Z,77.48
2022-10-14T12:54:53.317Z,79.99
2022-10-14T12:55:53.289Z,79.29
2022-10-14T12:56:53.324Z,80.50
2022-10-14T12:57:53.190Z,78.79
2022-10-14T12:58:53.289Z,77.32
2022-10-14T12:59:53.336Z,77.02
2022-10-14T13:00:53.230Z,77.46
2022-10-14T13:01:53.231Z,77.66
2022-10-14T13:02:53.127Z,77.96
2022-10-14T13:03:53.177Z,77.76
2022-10-14T13:04:53.100Z,78.77
2022-10-14T13:05:53.079Z,78.86
2022-10-14T13:06:53.207Z,79.77
2022-10-14T13:07:53.123Z,78.66
2022-10-14T13:08:53.051Z,78.86
2022-10-14T13:09:53.031Z,79.27
2022-10-14T13:10:53.028Z,78.66
2022-10-14T13:11:53.000Z,78.16
2022-10-14T13:12:53.092Z,78.66
2022-10-14T13:13:52.969Z,79.27
2022-10-14T13:14:53.989Z,79.00
2022-10-14T13:15:52.971Z,79.61
2022-10-14T13:16:52.941Z,79.91
2022-10-14T13:17:52.918Z,79.30
2022-10-14T13:18:52.961Z,79.54
2022-10-14T13:19:52.898Z,79.04
2022-10-14T13:20:52.889Z,79.64
2022-10-14T13:21:52.871Z,80.75
2022-10-14T13:22:52.867Z,80.05
2022-10-14T13:23:52.837Z,80.91
2022-10-14T13:24:52.918Z,81.21
2022-10-14T13:25:52.823Z,80.71
2022-10-14T13:26:52.812Z,80.11
2022-10-14T13:27:52.789Z,80.21
2022-10-14T13:28:52.859Z,80.31
2022-10-14T13:29:52.758Z,80.11
2022-10-14T13:30:52.801Z,79.00
2022-10-14T13:31:52.739Z,78.60
2022-10-14T13:32:52.729Z,78.50
2022-10-14T13:33:52.717Z,78.90
2022-10-14T13:34:52.755Z,79.71
2022-10-14T13:35:52.700Z,79.61
2022-10-14T13:36:52.807Z,79.50
2022-10-14T13:37:52.780Z,80.11
2022-10-14T13:38:52.707Z,79.71
2022-10-14T13:39:52.637Z,80.71
2022-10-14T13:40:52.619Z,80.05
2022-10-14T13:41:52.760Z,80.55
2022-10-14T13:42:52.727Z,80.65
2022-10-14T13:43:52.589Z,79.85
2022-10-14T13:44:52.575Z,80.39
2022-10-14T13:45:52.556Z,80.49
2022-10-14T13:46:52.537Z,80.99
2022-10-14T13:47:52.636Z,81.39
2022-10-14T13:48:52.658Z,81.39
2022-10-14T13:49:52.506Z,82.10
2022-10-14T13:50:54.166Z,82.20
2022-10-14T13:51:53.528Z,81.79
2022-10-14T13:52:52.467Z,81.99
2022-10-14T13:53:55.476Z,82.24
2022-10-14T13:54:52.446Z,82.54
2022-10-14T13:55:54.539Z,82.94
2022-10-14T13:57:01.762Z,82.14
2022-10-14T13:58:11.987Z,82.54
2022-10-14T13:58:53.387Z,83.34
2022-10-14T14:00:39.678Z,82.84
2022-10-14T14:00:53.390Z,82.74
2022-10-14T14:01:52.387Z,82.54
2022-10-14T14:02:55.928Z,83.04
2022-10-14T14:03:53.329Z,82.34
2022-10-14T14:04:52.309Z,82.78
2022-10-14T14:05:52.557Z,82.98
2022-10-14T14:07:18.315Z,83.08
2022-10-14T14:08:36.585Z,82.94
2022-10-14T14:08:53.265Z,83.34
2022-10-14T14:09:52.243Z,83.25
2022-10-14T14:11:14.876Z,83.79
2022-10-14T14:11:53.695Z,83.79
2022-10-14T14:12:52.277Z,83.59
2022-10-14T14:13:58.886Z,83.69
2022-10-14T14:14:53.195Z,83.69
2022-10-14T14:15:52.204Z,84.03
2022-10-14T14:16:52.228Z,84.33
2022-10-14T14:17:52.526Z,84.13
2022-10-14T14:19:04.043Z,84.53
2022-10-14T14:19:53.103Z,84.53
2022-10-14T14:20:52.109Z,84.53
2022-10-14T14:21:52.096Z,84.83
2022-10-14T14:22:52.194Z,84.47
2022-10-14T14:23:52.240Z,84.67
2022-10-14T14:24:52.042Z,84.88
2022-10-14T14:26:17.894Z,84.88
2022-10-14T14:26:53.071Z,84.67
2022-10-14T14:27:52.011Z,84.43
2022-10-14T14:28:52.086Z,84.94
2022-10-14T14:29:52.103Z,84.74
2022-10-14T14:30:54.656Z,84.53
2022-10-14T14:32:05.964Z,84.63
2022-10-14T14:32:52.972Z,84.03
2022-10-14T14:33:51.931Z,84.03
2022-10-14T14:35:51.973Z,83.93
2022-10-14T14:36:55.513Z,83.42
2022-10-14T14:37:56.239Z,83.72
2022-10-14T14:38:51.873Z,83.52
2022-10-14T14:39:51.842Z,83.48
2022-10-14T14:40:51.951Z,83.28
2022-10-14T14:41:51.831Z,83.39
2022-10-14T14:42:52.001Z,83.08
2022-10-14T14:44:07.600Z,83.08
2022-10-14T14:44:52.786Z,83.08
2022-10-14T14:45:51.762Z,83.39
2022-10-14T14:46:51.759Z,83.08
2022-10-14T14:47:51.741Z,82.98
2022-10-14T14:48:54.257Z,83.28
2022-10-14T14:49:57.458Z,83.18
2022-10-14T14:50:52.700Z,83.39
2022-10-14T14:51:51.690Z,83.79
2022-10-14T14:52:51.787Z,83.28
2022-10-14T14:53:51.660Z,83.22
2022-10-14T14:54:51.649Z,83.52
2022-10-14T14:55:51.639Z,83.52
2022-10-14T14:56:51.662Z,83.83
2022-10-14T14:57:51.650Z,83.89
2022-10-14T14:58:51.591Z,83.62
2022-10-14T14:59:51.582Z,84.23
2022-10-14T15:00:51.571Z,84.13
2022-10-14T15:01:51.602Z,84.33
2022-10-14T15:02:51.541Z,84.33
2022-10-14T15:04:13.100Z,84.63
2022-10-14T15:04:52.519Z,84.94
2022-10-14T15:05:51.642Z,84.83
2022-10-14T15:06:51.989Z,85.17
2022-10-14T15:07:51.478Z,85.17
2022-10-14T15:08:51.467Z,85.08
2022-10-14T15:09:51.492Z,85.48
2022-10-14T15:10:51.449Z,85.68
2022-10-14T15:11:51.438Z,85.88
2022-10-14T15:12:51.409Z,85.68
2022-10-14T15:13:51.397Z,85.92
2022-10-14T15:14:51.435Z,85.92
2022-10-14T15:15:51.607Z,86.22
2022-10-14T15:16:51.356Z,86.43
2022-10-14T15:17:51.347Z,86.33
2022-10-14T15:18:51.509Z,86.43
2022-10-14T15:19:51.347Z,86.53
2022-10-14T15:20:51.298Z,86.63
2022-10-14T15:21:51.409Z,86.83
2022-10-14T15:22:51.287Z,87.07
2022-10-14T15:23:51.322Z,87.18
2022-10-14T15:24:51.248Z,87.07
2022-10-14T15:25:51.290Z,87.18
2022-10-14T15:26:51.277Z,87.38
2022-10-14T15:27:51.249Z,87.38
2022-10-14T15:28:51.335Z,87.48
2022-10-14T15:29:51.218Z,87.58
2022-10-14T15:30:51.178Z,87.78
2022-10-14T15:31:51.185Z,87.78
2022-10-14T15:32:51.160Z,87.92
2022-10-14T15:33:51.162Z,87.92
2022-10-14T15:34:51.181Z,87.92
2022-10-14T15:35:51.165Z,88.12
2022-10-14T15:36:51.197Z,88.12
2022-10-14T15:37:51.078Z,88.32
2022-10-14T15:38:51.068Z,88.43
2022-10-14T15:39:51.057Z,88.63
2022-10-14T15:40:51.039Z,88.53
2022-10-14T15:41:51.024Z,88.63
2022-10-14T15:42:51.065Z,88.63
2022-10-14T15:43:51.016Z,88.83
2022-10-14T15:44:50.985Z,88.73
2022-10-14T15:45:50.995Z,88.83
2022-10-14T15:46:50.963Z,89.03
2022-10-14T15:47:50.978Z,88.93
2022-10-14T15:48:51.113Z,88.93
2022-10-14T15:49:50.914Z,88.87
2022-10-14T15:50:50.923Z,89.17
2022-10-14T15:51:50.885Z,89.28
2022-10-14T15:52:50.877Z,89.37
2022-10-14T15:53:50.872Z,89.58
2022-10-14T15:54:50.910Z,89.68
2022-10-14T15:55:50.886Z,89.58
2022-10-14T15:56:50.983Z,89.88
2022-10-14T15:57:50.818Z,89.78
2022-10-14T15:58:50.805Z,89.98
2022-10-14T15:59:50.813Z,90.19
2022-10-14T16:00:50.858Z,90.28
2022-10-14T16:01:50.886Z,90.39
2022-10-14T16:02:50.745Z,90.53
2022-10-14T16:03:50.765Z,90.63
2022-10-14T16:05:18.297Z,90.73
2022-10-14T16:05:52.014Z,91.14
2022-10-14T16:06:50.719Z,91.14
2022-10-14T16:07:50.681Z,91.28
2022-10-14T16:08:50.693Z,91.28
2022-10-14T16:09:50.672Z,91.38
2022-10-14T16:10:50.647Z,91.69
2022-10-14T16:11:50.716Z,91.69
2022-10-14T16:12:50.623Z,91.73
2022-10-14T16:13:57.606Z,91.73
2022-10-14T16:14:50.588Z,91.73
2022-10-14T16:15:50.570Z,91.93
2022-10-14T16:16:52.257Z,91.83
2022-10-14T16:17:52.988Z,92.13
2022-10-14T16:18:50.545Z,92.03
2022-10-14T16:19:50.525Z,92.13
2022-10-14T16:20:50.517Z,92.44
2022-10-14T16:21:50.495Z,92.58
2022-10-14T16:22:50.486Z,92.68
2022-10-14T16:23:50.676Z,92.68
2022-10-14T16:24:50.462Z,92.79
2022-10-14T16:25:50.443Z,92.79
2022-10-14T16:26:50.436Z,92.99
2022-10-14T16:27:50.415Z,92.99
2022-10-14T16:28:50.426Z,92.99
2022-10-14T16:29:50.427Z,93.08
2022-10-14T16:30:50.377Z,93.19
2022-10-14T16:31:50.365Z,93.33
2022-10-14T16:32:50.370Z,93.43
2022-10-14T16:33:50.334Z,93.54
2022-10-14T16:34:50.330Z,93.63
2022-10-14T16:35:50.405Z,93.74
2022-10-14T16:36:50.304Z,93.74
2022-10-14T16:37:50.326Z,93.74
2022-10-14T16:38:50.275Z,93.84
2022-10-14T16:39:50.300Z,93.84
2022-10-14T16:40:50.261Z,94.04
2022-10-14T16:41:50.301Z,93.94
2022-10-14T16:42:50.224Z,94.14
2022-10-14T16:43:50.267Z,94.04
2022-10-14T16:44:50.193Z,93.94
2022-10-14T16:45:50.191Z,94.04
2022-10-14T16:46:50.230Z,94.14
2022-10-14T16:47:50.153Z,94.19
2022-10-14T16:48:50.161Z,94.29
2022-10-14T16:49:50.123Z,94.29
2022-10-14T16:50:50.112Z,94.29
2022-10-14T16:51:50.098Z,94.29
2022-10-14T16:52:50.182Z,94.29
2022-10-14T16:53:50.092Z,94.29
2022-10-14T16:54:50.062Z,94.29
2022-10-14T16:55:50.042Z,94.39
2022-10-14T16:56:50.073Z,94.39